sensor_id;sensor_type;location;lat;lon;timestamp;temperature;humidity
16313;DHT22;8265;52.622;13.296;2022-08-03T00:03:17;18.00;99.90
16313;DHT22;8265;52.622;13.296;2022-08-03T00:08:38;18.10;99.90
16313;DHT22;8265;52.622;13.296;2022-08-03T00:13:59;18.10;99.90
16313;DHT22;8265;52.622;13.296;2022-08-03T00:19:19;18.20;99.90
16313;DHT22;8265;52.622;13.296;2022-08-03T00:24:43;18.20;99.90
16313;DHT22;8265;52.622;13.296;2022-08-03T00:30:02;18.10;99.90
16313;DHT22;8265;52.622;13.296;2022-08-03T00:35:22;18.20;99.90
16313;DHT22;8265;52.622;13.296;2022-08-03T00:40:43;18.20;99.90
16313;DHT22;8265;52.622;13.296;2022-08-03T00:46:04;18.20;99.90
16313;DHT22;8265;52.622;13.296;2022-08-03T00:51:25;18.30;99.90
16313;DHT22;8265;52.622;13.296;2022-08-03T00:56:46;18.20;99.90
16313;DHT22;8265;52.622;13.296;2022-08-03T01:02:07;18.10;99.90
16313;DHT22;8265;52.622;13.296;2022-08-03T01:07:32;18.00;99.90
16313;DHT22;8265;52.622;13.296;2022-08-03T01:12:54;17.80;99.90
16313;DHT22;8265;52.622;13.296;2022-08-03T01:18:13;17.70;99.90
16313;DHT22;8265;52.622;13.296;2022-08-03T01:24:13;17.80;99.90
16313;DHT22;8265;52.622;13.296;2022-08-03T01:29:02;17.80;99.90
16313;DHT22;8265;52.622;13.296;2022-08-03T01:34:13;17.90;99.90
16313;DHT22;8265;52.622;13.296;2022-08-03T01:39:34;18.00;99.90
16313;DHT22;8265;52.622;13.296;2022-08-03T01:44:55;18.10;99.90
16313;DHT22;8265;52.622;13.296;2022-08-03T01:50:17;18.40;99.90
16313;DHT22;8265;52.622;13.296;2022-08-03T01:55:37;18.30;99.90
16313;DHT22;8265;52.622;13.296;2022-08-03T02:00:58;18.40;99.90
16313;DHT22;8265;52.622;13.296;2022-08-03T02:06:19;18.50;99.90
16313;DHT22;8265;52.622;13.296;2022-08-03T02:11:40;18.50;99.90
16313;DHT22;8265;52.622;13.296;2022-08-03T02:17:01;18.40;99.90
16313;DHT22;8265;52.622;13.296;2022-08-03T02:22:22;18.50;99.90
16313;DHT22;8265;52.622;13.296;2022-08-03T02:27:45;18.40;99.90
16313;DHT22;8265;52.622;13.296;2022-08-03T02:33:04;18.50;99.90
16313;DHT22;8265;52.622;13.296;2022-08-03T02:38:27;18.20;99.90
16313;DHT22;8265;52.622;13.296;2022-08-03T02:43:47;18.10;99.90
16313;DHT22;8265;52.622;13.296;2022-08-03T02:49:07;18.10;99.90
16313;DHT22;8265;52.622;13.296;2022-08-03T02:54:28;18.00;99.90
16313;DHT22;8265;52.622;13.296;2022-08-03T02:59:49;18.00;99.90
16313;DHT22;8265;52.622;13.296;2022-08-03T03:05:10;17.90;99.90
16313;DHT22;8265;52.622;13.296;2022-08-03T03:10:31;17.80;99.90
16313;DHT22;8265;52.622;13.296;2022-08-03T03:15:52;17.70;99.90
16313;DHT22;8265;52.622;13.296;2022-08-03T03:21:14;17.50;99.90
16313;DHT22;8265;52.622;13.296;2022-08-03T03:26:34;17.40;99.90
16313;DHT22;8265;52.622;13.296;2022-08-03T03:31:55;17.50;99.90
16313;DHT22;8265;52.622;13.296;2022-08-03T03:37:15;17.40;99.90
16313;DHT22;8265;52.622;13.296;2022-08-03T03:42:36;17.10;99.90
16313;DHT22;8265;52.622;13.296;2022-08-03T03:47:59;17.00;99.90
16313;DHT22;8265;52.622;13.296;2022-08-03T03:53:18;17.10;99.90
16313;DHT22;8265;52.622;13.296;2022-08-03T03:58:40;17.00;99.90
16313;DHT22;8265;52.622;13.296;2022-08-03T04:04:00;17.10;99.90
16313;DHT22;8265;52.622;13.296;2022-08-03T04:09:21;17.10;99.90
16313;DHT22;8265;52.622;13.296;2022-08-03T04:14:42;17.10;99.90
16313;DHT22;8265;52.622;13.296;2022-08-03T04:20:04;17.10;99.90
16313;DHT22;8265;52.622;13.296;2022-08-03T04:25:25;17.10;99.90
16313;DHT22;8265;52.622;13.296;2022-08-03T04:30:46;17.20;99.90
16313;DHT22;8265;52.622;13.296;2022-08-03T04:36:08;17.30;99.90
16313;DHT22;8265;52.622;13.296;2022-08-03T04:41:27;17.30;99.90
16313;DHT22;8265;52.622;13.296;2022-08-03T04:46:48;17.50;99.90
16313;DHT22;8265;52.622;13.296;2022-08-03T04:52:09;17.60;99.90
16313;DHT22;8265;52.622;13.296;2022-08-03T04:57:30;17.70;99.90
16313;DHT22;8265;52.622;13.296;2022-08-03T05:02:51;17.90;99.90
16313;DHT22;8265;52.622;13.296;2022-08-03T05:08:12;18.20;99.90
16313;DHT22;8265;52.622;13.296;2022-08-03T05:13:33;18.40;99.90
16313;DHT22;8265;52.622;13.296;2022-08-03T05:18:54;18.70;99.90
16313;DHT22;8265;52.622;13.296;2022-08-03T05:24:15;18.90;99.90
16313;DHT22;8265;52.622;13.296;2022-08-03T05:29:36;19.10;99.90
16313;DHT22;8265;52.622;13.296;2022-08-03T05:34:57;19.50;99.90
16313;DHT22;8265;52.622;13.296;2022-08-03T05:40:18;19.70;99.90
16313;DHT22;8265;52.622;13.296;2022-08-03T05:45:39;20.10;99.90
16313;DHT22;8265;52.622;13.296;2022-08-03T05:50:59;20.40;99.90
16313;DHT22;8265;52.622;13.296;2022-08-03T05:56:23;20.70;99.90
16313;DHT22;8265;52.622;13.296;2022-08-03T06:01:41;21.00;99.90
16313;DHT22;8265;52.622;13.296;2022-08-03T06:07:02;21.30;99.90
16313;DHT22;8265;52.622;13.296;2022-08-03T06:12:23;21.60;99.90
16313;DHT22;8265;52.622;13.296;2022-08-03T06:17:48;21.80;99.90
16313;DHT22;8265;52.622;13.296;2022-08-03T06:23:05;22.20;99.90
16313;DHT22;8265;52.622;13.296;2022-08-03T06:28:27;22.60;99.90
16313;DHT22;8265;52.622;13.296;2022-08-03T06:33:47;23.00;99.90
16313;DHT22;8265;52.622;13.296;2022-08-03T06:39:08;23.30;99.90
16313;DHT22;8265;52.622;13.296;2022-08-03T06:44:29;23.40;99.90
16313;DHT22;8265;52.622;13.296;2022-08-03T06:49:50;23.70;99.90
16313;DHT22;8265;52.622;13.296;2022-08-03T06:55:11;23.90;99.90
16313;DHT22;8265;52.622;13.296;2022-08-03T07:00:32;24.20;99.90
16313;DHT22;8265;52.622;13.296;2022-08-03T07:05:53;24.40;99.90
16313;DHT22;8265;52.622;13.296;2022-08-03T07:11:14;24.70;99.90
16313;DHT22;8265;52.622;13.296;2022-08-03T07:16:35;24.90;99.90
16313;DHT22;8265;52.622;13.296;2022-08-03T07:21:56;25.10;99.90
16313;DHT22;8265;52.622;13.296;2022-08-03T07:27:17;25.40;99.90
16313;DHT22;8265;52.622;13.296;2022-08-03T07:32:38;25.60;99.90
16313;DHT22;8265;52.622;13.296;2022-08-03T07:37:59;25.90;99.90
16313;DHT22;8265;52.622;13.296;2022-08-03T07:43:19;26.10;99.90
16313;DHT22;8265;52.622;13.296;2022-08-03T07:48:40;26.40;99.90
16313;DHT22;8265;52.622;13.296;2022-08-03T07:54:01;26.50;99.90
16313;DHT22;8265;52.622;13.296;2022-08-03T07:59:22;26.70;99.90
16313;DHT22;8265;52.622;13.296;2022-08-03T08:04:43;26.90;99.90
16313;DHT22;8265;52.622;13.296;2022-08-03T08:10:06;27.00;99.90
16313;DHT22;8265;52.622;13.296;2022-08-03T08:15:26;27.10;98.20
16313;DHT22;8265;52.622;13.296;2022-08-03T08:20:46;27.30;97.70
16313;DHT22;8265;52.622;13.296;2022-08-03T08:26:07;27.40;95.80
16313;DHT22;8265;52.622;13.296;2022-08-03T08:31:28;27.70;93.70
16313;DHT22;8265;52.622;13.296;2022-08-03T08:36:49;27.70;92.40
16313;DHT22;8265;52.622;13.296;2022-08-03T08:42:11;27.80;92.00
16313;DHT22;8265;52.622;13.296;2022-08-03T08:47:31;28.00;91.20
16313;DHT22;8265;52.622;13.296;2022-08-03T08:52:52;28.20;91.40
16313;DHT22;8265;52.622;13.296;2022-08-03T08:58:13;28.30;90.40
16313;DHT22;8265;52.622;13.296;2022-08-03T09:03:34;28.40;90.10
16313;DHT22;8265;52.622;13.296;2022-08-03T09:08:55;28.50;89.10
16313;DHT22;8265;52.622;13.296;2022-08-03T09:14:16;28.60;90.10
16313;DHT22;8265;52.622;13.296;2022-08-03T09:19:38;28.80;90.00
16313;DHT22;8265;52.622;13.296;2022-08-03T09:24:59;28.90;88.60
16313;DHT22;8265;52.622;13.296;2022-08-03T09:30:19;29.10;89.60
16313;DHT22;8265;52.622;13.296;2022-08-03T09:35:43;29.20;87.30
16313;DHT22;8265;52.622;13.296;2022-08-03T09:41:01;29.50;87.80
16313;DHT22;8265;52.622;13.296;2022-08-03T09:46:22;29.40;86.20
16313;DHT22;8265;52.622;13.296;2022-08-03T09:51:43;29.50;85.90
16313;DHT22;8265;52.622;13.296;2022-08-03T09:57:04;29.50;85.20
16313;DHT22;8265;52.622;13.296;2022-08-03T10:02:25;29.50;84.50
16313;DHT22;8265;52.622;13.296;2022-08-03T10:07:46;29.70;85.30
16313;DHT22;8265;52.622;13.296;2022-08-03T10:13:06;30.00;84.60
16313;DHT22;8265;52.622;13.296;2022-08-03T10:18:27;30.10;84.70
16313;DHT22;8265;52.622;13.296;2022-08-03T10:23:48;30.10;84.90
16313;DHT22;8265;52.622;13.296;2022-08-03T10:29:11;30.30;84.00
16313;DHT22;8265;52.622;13.296;2022-08-03T10:34:33;30.50;83.80
16313;DHT22;8265;52.622;13.296;2022-08-03T10:39:51;30.70;82.10
16313;DHT22;8265;52.622;13.296;2022-08-03T10:45:16;30.60;82.00
16313;DHT22;8265;52.622;13.296;2022-08-03T10:50:33;30.70;83.00
16313;DHT22;8265;52.622;13.296;2022-08-03T10:55:54;30.80;82.60
16313;DHT22;8265;52.622;13.296;2022-08-03T11:01:15;30.90;80.40
16313;DHT22;8265;52.622;13.296;2022-08-03T11:06:36;30.70;81.60
16313;DHT22;8265;52.622;13.296;2022-08-03T11:11:57;30.90;80.90
16313;DHT22;8265;52.622;13.296;2022-08-03T11:17:18;31.30;82.30
16313;DHT22;8265;52.622;13.296;2022-08-03T11:22:48;31.50;79.90
16313;DHT22;8265;52.622;13.296;2022-08-03T11:28:25;31.60;78.90
16313;DHT22;8265;52.622;13.296;2022-08-03T11:33:30;31.80;78.30
16313;DHT22;8265;52.622;13.296;2022-08-03T11:39:13;31.80;76.50
16313;DHT22;8265;52.622;13.296;2022-08-03T11:44:03;31.90;77.70
16313;DHT22;8265;52.622;13.296;2022-08-03T11:49:24;32.10;75.60
16313;DHT22;8265;52.622;13.296;2022-08-03T11:54:45;32.30;78.00
16313;DHT22;8265;52.622;13.296;2022-08-03T12:00:24;32.40;76.70
16313;DHT22;8265;52.622;13.296;2022-08-03T12:05:38;32.60;76.80
16313;DHT22;8265;52.622;13.296;2022-08-03T12:10:49;33.00;75.20
16313;DHT22;8265;52.622;13.296;2022-08-03T12:16:08;32.80;74.90
16313;DHT22;8265;52.622;13.296;2022-08-03T12:21:29;33.10;75.20
16313;DHT22;8265;52.622;13.296;2022-08-03T12:26:50;33.60;73.70
16313;DHT22;8265;52.622;13.296;2022-08-03T12:32:15;33.40;72.60
16313;DHT22;8265;52.622;13.296;2022-08-03T12:37:32;33.60;72.90
16313;DHT22;8265;52.622;13.296;2022-08-03T12:42:53;34.00;73.30
16313;DHT22;8265;52.622;13.296;2022-08-03T12:48:14;33.80;71.80
16313;DHT22;8265;52.622;13.296;2022-08-03T12:53:35;33.90;70.40
16313;DHT22;8265;52.622;13.296;2022-08-03T12:58:56;33.80;72.10
16313;DHT22;8265;52.622;13.296;2022-08-03T13:04:26;34.00;71.10
16313;DHT22;8265;52.622;13.296;2022-08-03T13:09:45;34.00;71.00
16313;DHT22;8265;52.622;13.296;2022-08-03T13:14:59;34.20;70.00
16313;DHT22;8265;52.622;13.296;2022-08-03T13:20:20;33.80;70.00
16313;DHT22;8265;52.622;13.296;2022-08-03T13:25:41;33.80;70.00
16313;DHT22;8265;52.622;13.296;2022-08-03T13:31:02;34.00;69.90
16313;DHT22;8265;52.622;13.296;2022-08-03T13:36:23;34.60;70.90
16313;DHT22;8265;52.622;13.296;2022-08-03T13:41:44;34.50;68.90
16313;DHT22;8265;52.622;13.296;2022-08-03T13:47:05;34.90;69.00
16313;DHT22;8265;52.622;13.296;2022-08-03T13:52:26;34.90;68.10
16313;DHT22;8265;52.622;13.296;2022-08-03T13:57:47;35.60;67.60
16313;DHT22;8265;52.622;13.296;2022-08-03T14:03:08;35.20;67.30
16313;DHT22;8265;52.622;13.296;2022-08-03T14:08:29;35.80;67.10
16313;DHT22;8265;52.622;13.296;2022-08-03T14:13:50;35.80;66.30
16313;DHT22;8265;52.622;13.296;2022-08-03T14:19:11;36.20;66.40
16313;DHT22;8265;52.622;13.296;2022-08-03T14:24:31;36.50;64.50
16313;DHT22;8265;52.622;13.296;2022-08-03T14:29:52;36.60;64.20
16313;DHT22;8265;52.622;13.296;2022-08-03T14:35:13;36.30;63.60
16313;DHT22;8265;52.622;13.296;2022-08-03T14:40:34;35.70;65.30
16313;DHT22;8265;52.622;13.296;2022-08-03T14:45:55;36.40;64.90
16313;DHT22;8265;52.622;13.296;2022-08-03T14:51:16;35.90;65.10
16313;DHT22;8265;52.622;13.296;2022-08-03T14:56:37;36.60;63.20
16313;DHT22;8265;52.622;13.296;2022-08-03T15:01:58;36.90;63.20
16313;DHT22;8265;52.622;13.296;2022-08-03T15:07:19;35.90;64.40
16313;DHT22;8265;52.622;13.296;2022-08-03T15:12:42;35.50;65.20
16313;DHT22;8265;52.622;13.296;2022-08-03T15:18:01;36.20;63.30
16313;DHT22;8265;52.622;13.296;2022-08-03T15:23:22;36.40;66.10
16313;DHT22;8265;52.622;13.296;2022-08-03T15:28:43;35.90;62.60
16313;DHT22;8265;52.622;13.296;2022-08-03T15:34:04;35.60;64.20
16313;DHT22;8265;52.622;13.296;2022-08-03T15:39:25;36.30;63.00
16313;DHT22;8265;52.622;13.296;2022-08-03T15:44:46;35.80;64.20
16313;DHT22;8265;52.622;13.296;2022-08-03T15:50:07;36.20;62.70
16313;DHT22;8265;52.622;13.296;2022-08-03T15:55:28;36.00;63.60
16313;DHT22;8265;52.622;13.296;2022-08-03T16:00:49;36.40;62.60
16313;DHT22;8265;52.622;13.296;2022-08-03T16:06:10;36.20;66.00
16313;DHT22;8265;52.622;13.296;2022-08-03T16:11:31;36.20;64.70
16313;DHT22;8265;52.622;13.296;2022-08-03T16:16:52;35.80;65.70
16313;DHT22;8265;52.622;13.296;2022-08-03T16:22:13;36.40;63.60
16313;DHT22;8265;52.622;13.296;2022-08-03T16:27:34;35.20;68.80
16313;DHT22;8265;52.622;13.296;2022-08-03T16:32:55;35.40;63.90
16313;DHT22;8265;52.622;13.296;2022-08-03T16:38:16;35.40;64.20
16313;DHT22;8265;52.622;13.296;2022-08-03T16:43:37;35.20;66.50
16313;DHT22;8265;52.622;13.296;2022-08-03T16:48:58;34.80;68.20
16313;DHT22;8265;52.622;13.296;2022-08-03T16:54:19;35.20;70.60
16313;DHT22;8265;52.622;13.296;2022-08-03T16:59:39;36.60;65.10
16313;DHT22;8265;52.622;13.296;2022-08-03T17:05:00;37.40;60.30
16313;DHT22;8265;52.622;13.296;2022-08-03T17:10:22;37.50;69.90
16313;DHT22;8265;52.622;13.296;2022-08-03T17:15:42;36.90;70.80
16313;DHT22;8265;52.622;13.296;2022-08-03T17:21:04;35.70;68.60
16313;DHT22;8265;52.622;13.296;2022-08-03T17:26:24;35.10;72.00
16313;DHT22;8265;52.622;13.296;2022-08-03T17:31:45;34.30;77.20
16313;DHT22;8265;52.622;13.296;2022-08-03T17:37:06;34.80;75.60
16313;DHT22;8265;52.622;13.296;2022-08-03T17:42:27;35.60;76.00
16313;DHT22;8265;52.622;13.296;2022-08-03T17:47:48;35.00;71.90
16313;DHT22;8265;52.622;13.296;2022-08-03T17:53:11;33.50;74.60
16313;DHT22;8265;52.622;13.296;2022-08-03T17:58:37;32.20;75.90
16313;DHT22;8265;52.622;13.296;2022-08-03T18:03:52;31.30;78.40
16313;DHT22;8265;52.622;13.296;2022-08-03T18:09:12;30.60;81.60
16313;DHT22;8265;52.622;13.296;2022-08-03T18:14:36;29.80;86.00
16313;DHT22;8265;52.622;13.296;2022-08-03T18:19:54;29.10;89.70
16313;DHT22;8265;52.622;13.296;2022-08-03T18:25:15;28.60;88.80
16313;DHT22;8265;52.622;13.296;2022-08-03T18:30:39;28.10;90.30
16313;DHT22;8265;52.622;13.296;2022-08-03T18:35:57;27.60;91.90
16313;DHT22;8265;52.622;13.296;2022-08-03T18:41:18;27.30;91.50
16313;DHT22;8265;52.622;13.296;2022-08-03T18:46:54;27.10;92.50
16313;DHT22;8265;52.622;13.296;2022-08-03T18:52:02;26.90;93.00
16313;DHT22;8265;52.622;13.296;2022-08-03T18:57:21;26.60;93.20
16313;DHT22;8265;52.622;13.296;2022-08-03T19:02:47;26.40;93.90
16313;DHT22;8265;52.622;13.296;2022-08-03T19:08:03;26.10;95.00
16313;DHT22;8265;52.622;13.296;2022-08-03T19:13:26;25.80;96.10
16313;DHT22;8265;52.622;13.296;2022-08-03T19:18:45;25.60;96.80
16313;DHT22;8265;52.622;13.296;2022-08-03T19:24:06;25.40;97.40
16313;DHT22;8265;52.622;13.296;2022-08-03T19:29:26;25.10;98.00
16313;DHT22;8265;52.622;13.296;2022-08-03T19:34:48;24.90;98.40
16313;DHT22;8265;52.622;13.296;2022-08-03T19:40:10;24.80;99.00
16313;DHT22;8265;52.622;13.296;2022-08-03T19:45:31;24.60;99.90
16313;DHT22;8265;52.622;13.296;2022-08-03T19:50:51;24.40;99.90
16313;DHT22;8265;52.622;13.296;2022-08-03T19:56:11;24.20;99.90
16313;DHT22;8265;52.622;13.296;2022-08-03T20:01:32;24.10;99.90
16313;DHT22;8265;52.622;13.296;2022-08-03T20:06:54;24.00;99.90
16313;DHT22;8265;52.622;13.296;2022-08-03T20:12:14;23.80;99.90
16313;DHT22;8265;52.622;13.296;2022-08-03T20:17:35;23.70;99.90
16313;DHT22;8265;52.622;13.296;2022-08-03T20:22:57;23.60;99.90
16313;DHT22;8265;52.622;13.296;2022-08-03T20:28:20;23.40;99.90
16313;DHT22;8265;52.622;13.296;2022-08-03T20:33:38;23.50;99.90
16313;DHT22;8265;52.622;13.296;2022-08-03T20:38:59;23.30;99.90
16313;DHT22;8265;52.622;13.296;2022-08-03T20:44:20;23.10;99.90
16313;DHT22;8265;52.622;13.296;2022-08-03T20:49:41;23.00;99.90
16313;DHT22;8265;52.622;13.296;2022-08-03T20:55:02;22.80;99.90
16313;DHT22;8265;52.622;13.296;2022-08-03T21:00:23;22.90;99.90
16313;DHT22;8265;52.622;13.296;2022-08-03T21:05:44;22.70;99.90
16313;DHT22;8265;52.622;13.296;2022-08-03T21:11:06;22.70;99.90
16313;DHT22;8265;52.622;13.296;2022-08-03T21:16:27;22.60;99.90
16313;DHT22;8265;52.622;13.296;2022-08-03T21:21:47;22.50;99.90
16313;DHT22;8265;52.622;13.296;2022-08-03T21:27:08;22.50;99.90
16313;DHT22;8265;52.622;13.296;2022-08-03T21:32:29;22.30;99.90
16313;DHT22;8265;52.622;13.296;2022-08-03T21:37:50;22.40;99.90
16313;DHT22;8265;52.622;13.296;2022-08-03T21:43:11;22.30;99.90
16313;DHT22;8265;52.622;13.296;2022-08-03T21:48:34;22.10;99.90
16313;DHT22;8265;52.622;13.296;2022-08-03T21:53:53;22.00;99.90
16313;DHT22;8265;52.622;13.296;2022-08-03T21:59:17;21.90;99.90
16313;DHT22;8265;52.622;13.296;2022-08-03T22:04:35;21.90;99.90
16313;DHT22;8265;52.622;13.296;2022-08-03T22:09:56;21.90;99.90
16313;DHT22;8265;52.622;13.296;2022-08-03T22:15:17;21.90;99.90
16313;DHT22;8265;52.622;13.296;2022-08-03T22:20:38;21.70;99.90
16313;DHT22;8265;52.622;13.296;2022-08-03T22:25:59;21.60;99.90
16313;DHT22;8265;52.622;13.296;2022-08-03T22:31:20;21.50;99.90
16313;DHT22;8265;52.622;13.296;2022-08-03T22:36:41;21.40;99.90
16313;DHT22;8265;52.622;13.296;2022-08-03T22:42:02;21.40;99.90
16313;DHT22;8265;52.622;13.296;2022-08-03T22:47:22;21.30;99.90
16313;DHT22;8265;52.622;13.296;2022-08-03T22:52:44;21.10;99.90
16313;DHT22;8265;52.622;13.296;2022-08-03T22:58:04;21.10;99.90
16313;DHT22;8265;52.622;13.296;2022-08-03T23:03:29;21.00;99.90
16313;DHT22;8265;52.622;13.296;2022-08-03T23:08:46;21.00;99.90
16313;DHT22;8265;52.622;13.296;2022-08-03T23:14:09;20.90;99.90
16313;DHT22;8265;52.622;13.296;2022-08-03T23:19:28;21.00;99.90
16313;DHT22;8265;52.622;13.296;2022-08-03T23:24:49;21.00;99.90
16313;DHT22;8265;52.622;13.296;2022-08-03T23:30:11;21.00;99.90
16313;DHT22;8265;52.622;13.296;2022-08-03T23:35:31;21.10;99.90
16313;DHT22;8265;52.622;13.296;2022-08-03T23:40:52;21.10;99.90
16313;DHT22;8265;52.622;13.296;2022-08-03T23:46:13;21.00;99.90
16313;DHT22;8265;52.622;13.296;2022-08-03T23:51:38;21.00;99.90
16313;DHT22;8265;52.622;13.296;2022-08-03T23:56:58;21.00;99.90
